createdAt,value
2023-05-02T05:23:51.333Z,61.08
2023-05-02T05:25:54.194Z,60.73
2023-05-02T05:27:57.005Z,60.44
2023-05-02T05:30:00.434Z,59.99
2023-05-02T05:32:03.632Z,59.63
2023-05-02T05:34:06.724Z,59.37
2023-05-02T05:36:10.989Z,59.23
2023-05-02T05:38:13.793Z,59.30
2023-05-02T05:40:17.939Z,58.72
2023-05-02T05:42:20.923Z,58.86
2023-05-02T05:44:25.416Z,58.74
2023-05-02T05:46:28.291Z,58.56
2023-05-02T05:48:31.443Z,58.39
2023-05-02T05:50:34.263Z,58.22
2023-05-02T05:52:37.432Z,58.19
2023-05-02T05:54:41.751Z,58.00
2023-05-02T05:56:49.127Z,57.82
2023-05-02T05:58:51.824Z,57.69
2023-05-02T06:00:54.954Z,57.62
2023-05-02T06:02:57.820Z,57.36
2023-05-02T06:05:00.852Z,57.03
2023-05-02T06:07:03.742Z,57.16
2023-05-02T06:09:07.162Z,56.98
2023-05-02T06:11:11.658Z,57.06
2023-05-02T06:13:16.500Z,56.94
2023-05-02T06:15:19.630Z,56.75
2023-05-02T06:17:22.627Z,56.52
2023-05-02T06:19:25.590Z,56.42
2023-05-02T06:21:29.746Z,56.38
2023-05-02T06:23:33.376Z,56.34
2023-05-02T06:25:38.895Z,56.23
2023-05-02T06:27:41.746Z,56.24
2023-05-02T06:29:47.123Z,56.10
2023-05-02T06:31:51.019Z,56.10
2023-05-02T06:33:53.897Z,55.75
2023-05-02T06:35:58.522Z,55.81
2023-05-02T06:38:02.122Z,55.88
2023-05-02T06:40:05.637Z,55.76
2023-05-02T06:42:09.725Z,55.33
2023-05-02T06:44:12.811Z,55.56
2023-05-02T06:46:17.407Z,55.57
2023-05-02T06:48:21.490Z,55.53
2023-05-02T06:50:24.328Z,55.42
2023-05-02T06:52:27.414Z,55.46
2023-05-02T06:54:30.384Z,55.21
2023-05-02T06:56:33.662Z,55.12
2023-05-02T06:58:36.716Z,55.07
2023-05-02T07:00:39.834Z,55.10
2023-05-02T07:02:44.283Z,54.95
2023-05-02T07:04:47.335Z,54.84
2023-05-02T07:06:50.818Z,54.62
2023-05-02T07:08:53.988Z,54.85
2023-05-02T07:10:56.769Z,54.50
2023-05-02T07:12:59.614Z,54.50
2023-05-02T07:15:02.512Z,54.37
2023-05-02T07:17:05.895Z,54.22
2023-05-02T07:19:10.171Z,54.43
2023-05-02T07:21:13.364Z,54.12
2023-05-02T07:23:16.297Z,54.33
2023-05-02T07:25:19.226Z,54.31
2023-05-02T07:27:24.175Z,54.16
2023-05-02T07:29:27.121Z,54.13
2023-05-02T07:31:30.123Z,54.21
2023-05-02T07:33:32.960Z,54.05
2023-05-02T07:35:37.355Z,53.70
2023-05-02T07:37:40.267Z,53.69
2023-05-02T07:39:43.410Z,53.73
2023-05-02T07:41:46.422Z,53.59
2023-05-02T07:43:49.446Z,53.64
2023-05-02T07:45:52.410Z,53.36
2023-05-02T07:47:55.463Z,53.38
2023-05-02T07:49:58.530Z,53.34
2023-05-02T07:52:03.283Z,53.26
2023-05-02T07:54:16.498Z,52.83
2023-05-02T07:56:19.591Z,52.90
2023-05-02T07:58:24.060Z,53.05
2023-05-02T08:00:27.151Z,52.72
2023-05-02T08:02:37.422Z,52.86
2023-05-02T08:04:41.535Z,52.78
2023-05-02T08:06:46.143Z,52.77
2023-05-02T08:08:50.582Z,52.77
2023-05-02T08:10:53.542Z,52.45
2023-05-02T08:12:56.948Z,52.22
2023-05-02T08:14:59.750Z,52.24
2023-05-02T08:17:06.988Z,52.04
2023-05-02T08:19:10.055Z,52.03
2023-05-02T08:21:13.267Z,51.92
2023-05-02T08:23:16.635Z,51.97
2023-05-02T08:25:21.281Z,51.64
2023-05-02T08:27:24.108Z,51.63
2023-05-02T08:29:28.454Z,51.36
2023-05-02T08:31:31.462Z,51.48
2023-05-02T08:33:34.371Z,51.29
2023-05-02T08:35:37.434Z,51.21
2023-05-02T08:37:42.744Z,51.18
2023-05-02T08:39:46.046Z,51.07
2023-05-02T08:41:52.883Z,50.94
2023-05-02T08:43:57.623Z,50.96
2023-05-02T08:46:02.557Z,50.89
2023-05-02T08:48:08.605Z,50.77
2023-05-02T08:50:12.325Z,50.66
2023-05-02T08:52:16.905Z,50.57
2023-05-02T08:54:22.576Z,50.50
2023-05-02T08:56:27.409Z,50.58
2023-05-02T08:58:33.871Z,50.33
2023-05-02T09:00:40.210Z,50.04
2023-05-02T09:03:01.349Z,49.99
2023-05-02T09:05:08.607Z,49.89
2023-05-02T09:07:11.762Z,50.03
2023-05-02T09:09:17.743Z,49.87
2023-05-02T09:11:22.419Z,49.70
2023-05-02T09:13:37.765Z,49.85
2023-05-02T09:15:40.662Z,49.78
2023-05-02T09:17:44.802Z,49.79
2023-05-02T09:19:47.950Z,49.66
2023-05-02T09:21:51.256Z,49.58
2023-05-02T09:23:56.858Z,49.50
2023-05-02T09:26:00.193Z,49.46
2023-05-02T09:28:03.450Z,49.38
2023-05-02T09:30:31.675Z,49.42
2023-05-02T09:32:47.892Z,49.01
2023-05-02T09:35:06.176Z,49.09
2023-05-02T09:37:11.259Z,48.91
2023-05-02T09:39:15.589Z,49.00
2023-05-02T09:41:20.942Z,48.84
2023-05-02T09:43:24.289Z,48.40
2023-05-02T09:45:28.836Z,48.24
2023-05-02T09:47:33.234Z,48.28
2023-05-02T09:49:44.745Z,48.35
2023-05-02T09:51:48.552Z,47.99
2023-05-02T09:53:52.546Z,48.06
2023-05-02T09:56:01.848Z,48.15
2023-05-02T09:58:05.885Z,48.05
2023-05-02T10:00:10.395Z,48.06
2023-05-02T10:02:13.791Z,48.01
2023-05-02T10:04:20.711Z,47.82
2023-05-02T10:06:24.188Z,47.71
2023-05-02T10:08:28.918Z,47.70
2023-05-02T10:10:37.113Z,47.63
2023-05-02T10:12:41.299Z,47.57
2023-05-02T10:14:50.048Z,47.51
2023-05-02T10:17:01.457Z,47.77
2023-05-02T10:19:08.982Z,47.61
2023-05-02T10:21:16.017Z,47.51
2023-05-02T10:23:21.494Z,47.27
2023-05-02T10:25:26.977Z,47.01
2023-05-02T10:27:32.025Z,47.19
2023-05-02T10:29:36.175Z,47.17
2023-05-02T10:31:41.812Z,46.85
2023-05-02T10:33:47.889Z,46.68
2023-05-02T10:35:51.630Z,46.52
2023-05-02T10:37:56.393Z,46.63
2023-05-02T10:40:00.413Z,46.11
2023-05-02T10:42:08.630Z,46.25
2023-05-02T10:44:12.205Z,46.23
2023-05-02T10:46:35.065Z,45.97
2023-05-02T10:48:38.804Z,45.82
2023-05-02T10:50:47.445Z,45.71
2023-05-02T10:52:50.264Z,45.59
2023-05-02T10:55:15.096Z,45.40
2023-05-02T10:57:18.027Z,45.29
2023-05-02T10:59:31.651Z,45.03
2023-05-02T11:01:37.997Z,45.04
2023-05-02T11:03:57.533Z,44.85
2023-05-02T11:06:07.802Z,44.64
2023-05-02T11:08:32.583Z,44.64
2023-05-02T11:10:36.897Z,44.38
2023-05-02T11:12:47.492Z,44.19
2023-05-02T11:14:50.831Z,44.35
2023-05-02T11:17:07.505Z,44.14
2023-05-02T11:19:10.810Z,44.23
2023-05-02T11:21:30.045Z,44.16
2023-05-02T11:23:37.007Z,43.97
2023-05-02T11:25:43.908Z,44.23
2023-05-02T11:27:49.281Z,43.68
2023-05-02T11:29:55.448Z,43.83
2023-05-02T11:31:58.461Z,43.71
2023-05-02T11:34:02.574Z,43.57
2023-05-02T11:36:05.886Z,43.52
2023-05-02T11:38:12.261Z,43.20
2023-05-02T11:40:16.295Z,43.41
2023-05-02T11:42:30.917Z,42.98
2023-05-02T11:44:33.700Z,43.05
2023-05-02T11:46:39.452Z,42.96
2023-05-02T11:48:42.967Z,42.91
2023-05-02T11:50:50.144Z,42.69
2023-05-02T11:52:53.358Z,42.84
2023-05-02T11:54:56.869Z,42.71
2023-05-02T11:57:02.605Z,42.80
2023-05-02T11:59:08.497Z,43.00
2023-05-02T12:01:15.872Z,42.61
2023-05-02T12:03:32.424Z,42.67
2023-05-02T12:05:35.552Z,42.52
2023-05-02T12:07:39.461Z,42.74
2023-05-02T12:09:52.548Z,42.47
2023-05-02T12:11:55.588Z,42.54
2023-05-02T12:13:58.943Z,42.52
2023-05-02T12:16:04.456Z,42.30
2023-05-02T12:18:08.412Z,42.30
2023-05-02T12:20:13.079Z,41.97
2023-05-02T12:22:16.839Z,42.04
2023-05-02T12:24:19.763Z,42.14
2023-05-02T12:26:25.363Z,42.05
2023-05-02T12:28:28.900Z,41.74
2023-05-02T12:30:33.129Z,41.88
2023-05-02T12:32:38.616Z,41.62
2023-05-02T12:34:42.540Z,41.37
2023-05-02T12:36:46.103Z,41.21
2023-05-02T12:38:53.432Z,41.36
2023-05-02T12:40:58.423Z,41.30
2023-05-02T12:43:06.308Z,40.98
2023-05-02T12:45:18.226Z,41.09
2023-05-02T12:47:22.709Z,41.07
2023-05-02T12:49:27.057Z,41.13
2023-05-02T12:51:31.753Z,40.72
2023-05-02T12:53:42.037Z,40.58
2023-05-02T12:55:45.956Z,40.47
2023-05-02T12:57:49.528Z,40.87
2023-05-02T12:59:54.298Z,40.81
2023-05-02T13:01:57.259Z,41.02
2023-05-02T13:04:00.383Z,40.85
2023-05-02T13:06:05.299Z,40.93
2023-05-02T13:08:08.331Z,40.68
2023-05-02T13:10:12.237Z,40.71
2023-05-02T13:12:15.220Z,40.66
2023-05-02T13:14:18.165Z,40.75
2023-05-02T13:16:21.359Z,40.58
2023-05-02T13:18:24.335Z,40.66
2023-05-02T13:20:27.619Z,40.39
2023-05-02T13:22:33.036Z,40.62
2023-05-02T13:24:36.195Z,40.42
2023-05-02T13:26:39.341Z,40.27
2023-05-02T13:28:42.354Z,40.21
2023-05-02T13:30:45.494Z,40.36
2023-05-02T13:32:48.828Z,40.08
2023-05-02T13:34:51.727Z,40.32
2023-05-02T13:36:54.582Z,40.33
2023-05-02T13:38:58.861Z,40.44
2023-05-02T13:41:01.628Z,40.07
2023-05-02T13:43:04.742Z,39.89
2023-05-02T13:45:08.506Z,39.84
2023-05-02T13:47:11.768Z,39.73
2023-05-02T13:49:14.777Z,39.93
2023-05-02T13:51:17.760Z,39.96
2023-05-02T13:53:20.649Z,39.84
2023-05-02T13:55:25.066Z,39.77
2023-05-02T13:57:28.023Z,39.73
2023-05-02T13:59:31.001Z,40.04
2023-05-02T14:01:34.133Z,39.79
2023-05-02T14:03:37.259Z,39.55
2023-05-02T14:05:43.536Z,39.78
2023-05-02T14:07:47.261Z,39.77
2023-05-02T14:09:50.285Z,39.77
2023-05-02T14:11:55.645Z,39.56
2023-05-02T14:13:59.890Z,39.68
2023-05-02T14:16:02.950Z,39.25
2023-05-02T14:18:06.243Z,39.18
2023-05-02T14:20:10.515Z,39.11
2023-05-02T14:22:13.536Z,39.31
2023-05-02T14:24:18.334Z,39.16
2023-05-02T14:26:21.256Z,38.72
2023-05-02T14:28:27.020Z,38.90
2023-05-02T14:30:31.294Z,38.87
2023-05-02T14:32:34.361Z,38.79
2023-05-02T14:34:37.343Z,38.76
2023-05-02T14:36:40.904Z,38.79
2023-05-02T14:38:43.903Z,38.58
2023-05-02T14:40:46.887Z,38.35
2023-05-02T14:42:49.651Z,38.40
2023-05-02T14:44:53.769Z,38.54
2023-05-02T14:46:57.391Z,38.42
2023-05-02T14:49:00.503Z,38.16
2023-05-02T14:51:05.080Z,37.94
2023-05-02T14:53:08.288Z,38.12
2023-05-02T14:55:12.036Z,38.39
2023-05-02T14:57:15.675Z,37.87
2023-05-02T14:59:21.218Z,38.26
2023-05-02T15:01:25.703Z,38.04
2023-05-02T15:03:28.828Z,37.62
2023-05-02T15:05:32.014Z,37.54
2023-05-02T15:07:35.019Z,37.66
2023-05-02T15:09:38.089Z,37.85
2023-05-02T15:11:41.155Z,37.87
2023-05-02T15:13:44.093Z,37.61
2023-05-02T15:15:48.024Z,37.70
2023-05-02T15:17:53.181Z,37.98
2023-05-02T15:19:58.542Z,37.63
2023-05-02T15:22:01.804Z,37.53
2023-05-02T15:24:05.807Z,37.47
2023-05-02T15:26:08.764Z,37.68
2023-05-02T15:28:11.646Z,37.77
2023-05-02T15:30:16.636Z,37.76
2023-05-02T15:32:21.658Z,37.70
2023-05-02T15:34:25.945Z,37.76
2023-05-02T15:36:30.077Z,37.72
2023-05-02T15:38:34.012Z,37.55
2023-05-02T15:40:36.798Z,37.24
2023-05-02T15:42:40.138Z,37.50
2023-05-02T15:44:42.990Z,37.08
2023-05-02T15:46:47.124Z,37.32
2023-05-02T15:48:50.625Z,37.10
2023-05-02T15:50:54.995Z,37.16
2023-05-02T15:52:57.697Z,37.23
2023-05-02T15:55:01.665Z,37.00
2023-05-02T15:57:04.633Z,37.05
2023-05-02T15:59:07.454Z,37.06
2023-05-02T16:01:10.711Z,36.94
2023-05-02T16:03:14.105Z,36.89
2023-05-02T16:05:17.127Z,36.66
2023-05-02T16:07:21.541Z,36.85
2023-05-02T16:09:24.592Z,36.85
2023-05-02T16:11:27.315Z,36.53
2023-05-02T16:13:30.343Z,36.60
2023-05-02T16:15:33.306Z,36.12
2023-05-02T16:17:36.139Z,36.09
2023-05-02T16:19:39.049Z,36.39
2023-05-02T16:21:42.827Z,36.23
2023-05-02T16:23:46.975Z,36.19
2023-05-02T16:25:49.907Z,35.92
2023-05-02T16:27:52.947Z,35.94
2023-05-02T16:29:56.441Z,35.82
2023-05-02T16:31:59.742Z,36.06
2023-05-02T16:34:05.005Z,35.91
2023-05-02T16:36:08.299Z,35.85
2023-05-02T16:38:13.944Z,35.61
2023-05-02T16:40:18.614Z,35.83
2023-05-02T16:42:21.349Z,35.94
2023-05-02T16:44:24.507Z,35.94
2023-05-02T16:46:27.440Z,35.83
2023-05-02T16:48:30.582Z,35.79
2023-05-02T16:50:33.390Z,35.85
2023-05-02T16:52:38.130Z,35.80
2023-05-02T16:54:40.982Z,35.59
2023-05-02T16:56:45.128Z,35.63
2023-05-02T16:58:48.043Z,35.72
2023-05-02T17:00:50.851Z,35.76
2023-05-02T17:02:56.913Z,35.91
2023-05-02T17:05:00.195Z,35.62
2023-05-02T17:07:03.044Z,36.01
2023-05-02T17:09:06.292Z,35.72
2023-05-02T17:11:09.061Z,35.82
2023-05-02T17:13:13.176Z,35.79
2023-05-02T17:15:16.226Z,36.06
2023-05-02T17:17:22.607Z,35.92
2023-05-02T17:19:25.922Z,35.78
2023-05-02T17:21:29.015Z,36.21
2023-05-02T17:23:31.928Z,36.42
2023-05-02T17:25:34.671Z,36.20
2023-05-02T17:27:40.159Z,36.65
2023-05-02T17:29:45.144Z,36.55
2023-05-02T17:31:48.263Z,36.51
2023-05-02T17:33:51.045Z,36.73
2023-05-02T17:35:54.264Z,36.76
2023-05-02T17:37:57.081Z,36.92
2023-05-02T17:40:01.305Z,36.74
2023-05-02T17:42:04.216Z,36.98
2023-05-02T17:44:07.087Z,36.79
2023-05-02T17:46:13.672Z,36.73
2023-05-02T17:48:16.559Z,36.71
2023-05-02T17:50:19.627Z,36.60
2023-05-02T17:52:22.600Z,36.74
2023-05-02T17:54:25.689Z,36.45
2023-05-02T17:56:28.430Z,36.62
2023-05-02T17:58:31.341Z,36.85
2023-05-02T18:00:35.568Z,36.73
2023-05-02T18:02:39.876Z,36.74
2023-05-02T18:04:44.032Z,36.67
2023-05-02T18:06:48.184Z,36.91
2023-05-02T18:08:51.456Z,36.83
2023-05-02T18:10:54.601Z,37.03
2023-05-02T18:12:57.530Z,37.05
2023-05-02T18:15:01.974Z,37.00
2023-05-02T18:17:07.009Z,37.18
2023-05-02T18:19:12.564Z,37.19
2023-05-02T18:21:21.871Z,37.37
2023-05-02T18:23:25.188Z,37.45
2023-05-02T18:25:28.005Z,37.47
2023-05-02T18:27:30.726Z,37.70
2023-05-02T18:29:36.468Z,37.61
2023-05-02T18:31:40.324Z,37.90
2023-05-02T18:33:43.381Z,38.04
2023-05-02T18:35:48.390Z,38.11
2023-05-02T18:37:51.601Z,37.93
2023-05-02T18:39:56.247Z,38.24
2023-05-02T18:41:59.240Z,38.26
2023-05-02T18:44:05.121Z,38.48
2023-05-02T18:46:09.487Z,38.79
2023-05-02T18:48:12.450Z,38.88
2023-05-02T18:50:15.528Z,38.87
2023-05-02T18:52:19.635Z,38.96
2023-05-02T18:54:23.454Z,39.16
2023-05-02T18:56:26.613Z,39.21
2023-05-02T18:58:29.508Z,39.11
2023-05-02T19:00:37.075Z,39.16
2023-05-02T19:02:40.133Z,39.20
2023-05-02T19:04:43.005Z,39.18
2023-05-02T19:06:46.160Z,39.25
2023-05-02T19:08:50.658Z,39.13
2023-05-02T19:10:53.481Z,39.31
2023-05-02T19:12:56.593Z,39.29
2023-05-02T19:14:59.419Z,39.42
2023-05-02T19:17:02.279Z,39.46
2023-05-02T19:19:05.076Z,39.30
2023-05-02T19:21:13.470Z,39.39
2023-05-02T19:23:20.154Z,39.38
2023-05-02T19:25:24.963Z,39.50
2023-05-02T19:27:27.668Z,39.35
2023-05-02T19:29:30.500Z,39.39
2023-05-02T19:31:34.316Z,39.55
2023-05-02T19:33:37.492Z,39.23
2023-05-02T19:35:40.457Z,39.29
2023-05-02T19:37:43.936Z,39.31
2023-05-02T19:39:46.705Z,39.39
2023-05-02T19:41:50.990Z,39.25
2023-05-02T19:43:55.622Z,39.26
2023-05-02T19:45:58.696Z,39.21
2023-05-02T19:48:01.604Z,39.19
2023-05-02T19:50:04.710Z,39.25
2023-05-02T19:52:08.198Z,39.30
2023-05-02T19:54:11.766Z,39.28
2023-05-02T19:56:14.558Z,39.23
2023-05-02T19:58:18.794Z,39.25
2023-05-02T20:00:22.168Z,39.19
2023-05-02T20:02:25.415Z,39.17
2023-05-02T20:04:28.284Z,39.24
2023-05-02T20:06:32.083Z,39.12
2023-05-02T20:08:34.999Z,39.07
2023-05-02T20:10:38.048Z,39.30
2023-05-02T20:12:44.646Z,39.04
2023-05-02T20:14:48.767Z,39.19
2023-05-02T20:16:51.660Z,39.11
2023-05-02T20:18:54.719Z,39.00
2023-05-02T20:20:57.727Z,39.10
2023-05-02T20:23:00.468Z,39.16
2023-05-02T20:25:03.792Z,39.02
2023-05-02T20:27:06.649Z,38.98
2023-05-02T20:29:10.574Z,38.94
2023-05-02T20:31:14.834Z,38.88
2023-05-02T20:33:18.360Z,38.83
2023-05-02T20:35:21.349Z,38.93
2023-05-02T20:37:25.530Z,38.87
2023-05-02T20:39:28.265Z,39.15
2023-05-02T20:41:32.314Z,39.08
2023-05-02T20:43:36.113Z,38.97
2023-05-02T20:45:39.982Z,38.98
2023-05-02T20:47:44.191Z,39.12
2023-05-02T20:49:47.622Z,39.19
2023-05-02T20:51:51.517Z,39.29
2023-05-02T20:53:54.470Z,39.24
2023-05-02T20:55:57.263Z,39.29
2023-05-02T20:57:59.978Z,39.37
2023-05-02T21:00:04.427Z,39.32
2023-05-02T21:02:08.316Z,39.48
2023-05-02T21:04:14.188Z,39.43
2023-05-02T21:06:21.143Z,39.46
2023-05-02T21:08:27.922Z,39.34
2023-05-02T21:10:34.000Z,39.47
2023-05-02T21:12:40.059Z,39.50
2023-05-02T21:14:45.952Z,39.55
2023-05-02T21:16:52.016Z,39.62
2023-05-02T21:18:58.005Z,39.63
2023-05-02T21:21:04.971Z,39.61
2023-05-02T21:23:11.920Z,39.59
2023-05-02T21:25:17.902Z,39.56
2023-05-02T21:27:24.067Z,39.58
2023-05-02T21:29:28.137Z,39.60
2023-05-02T21:31:34.082Z,39.70
2023-05-02T21:33:38.131Z,39.84
2023-05-02T21:35:42.026Z,39.97
2023-05-02T21:37:47.131Z,39.88
2023-05-02T21:39:51.090Z,40.12
2023-05-02T21:41:55.202Z,40.00
2023-05-02T21:43:59.059Z,40.14
2023-05-02T21:46:03.184Z,40.03
2023-05-02T21:48:07.092Z,40.18
2023-05-02T21:50:11.277Z,40.29
2023-05-02T21:52:15.106Z,40.33
2023-05-02T21:54:21.196Z,40.33
2023-05-02T21:56:25.025Z,40.37
2023-05-02T21:58:30.222Z,40.54
2023-05-02T22:00:34.094Z,40.46
2023-05-02T22:02:38.276Z,40.49
2023-05-02T22:04:49.154Z,40.61
